createdAt,value
2022-11-26T00:00:58.649Z,100126.53
2022-11-26T00:03:28.222Z,100128.63
2022-11-26T00:05:58.549Z,100135.72
2022-11-26T00:08:32.374Z,100131.47
2022-11-26T00:11:02.405Z,100135.81
2022-11-26T00:13:32.485Z,100148.78
2022-11-26T00:16:02.479Z,100151.88
2022-11-26T00:18:31.989Z,100147.63
2022-11-26T00:21:01.876Z,100147.38
2022-11-26T00:23:32.940Z,100143.13
2022-11-26T00:26:03.391Z,100146.09
2022-11-26T00:28:33.901Z,100148.75
2022-11-26T00:31:04.078Z,100146.69
2022-11-26T00:33:33.681Z,100148.19
2022-11-26T00:36:04.277Z,100137.91
2022-11-26T00:38:35.860Z,100148.75
2022-11-26T00:41:05.465Z,100147.97
2022-11-26T00:43:35.011Z,100149.25
2022-11-26T00:46:15.897Z,100147.81
2022-11-26T00:48:45.457Z,100152.94
2022-11-26T00:51:16.689Z,100156.63
2022-11-26T00:53:46.738Z,100162.31
2022-11-26T00:56:18.248Z,100161.94
2022-11-26T00:58:48.363Z,100160.59
2022-11-26T01:01:25.480Z,100172.72
2022-11-26T01:03:55.666Z,100180.56
2022-11-26T01:06:28.794Z,100173.66
2022-11-26T01:08:58.517Z,100170.34
2022-11-26T01:11:28.618Z,100169.59
2022-11-26T01:14:01.067Z,100175.56
2022-11-26T01:16:35.699Z,100172.41
2022-11-26T01:19:05.685Z,100167.59
2022-11-26T01:21:35.173Z,100174.69
2022-11-26T01:24:05.045Z,100169.75
2022-11-26T01:26:35.791Z,100171.09
2022-11-26T01:29:05.586Z,100174.19
2022-11-26T01:31:36.521Z,100176.47
2022-11-26T01:34:06.568Z,100174.59
2022-11-26T01:36:37.041Z,100177.78
2022-11-26T01:39:08.084Z,100168.44
2022-11-26T01:41:44.074Z,100185.38
2022-11-26T01:44:17.995Z,100183.50
2022-11-26T01:46:49.665Z,100173.16
2022-11-26T01:49:20.784Z,100174.50
2022-11-26T01:51:52.015Z,100177.84
2022-11-26T01:54:21.634Z,100175.63
2022-11-26T01:56:52.668Z,100163.59
2022-11-26T01:59:24.589Z,100169.19
2022-11-26T02:01:56.260Z,100183.25
2022-11-26T02:04:28.211Z,100178.34
2022-11-26T02:06:58.300Z,100185.22
2022-11-26T02:09:29.384Z,100182.66
2022-11-26T02:12:00.793Z,100188.66
2022-11-26T02:14:32.539Z,100190.00
2022-11-26T02:17:09.693Z,100191.97
2022-11-26T02:19:53.831Z,100187.28
2022-11-26T02:22:37.711Z,100183.72
2022-11-26T02:25:12.281Z,100191.16
2022-11-26T02:28:01.564Z,100190.22
2022-11-26T02:30:33.568Z,100202.59
2022-11-26T02:33:05.867Z,100204.13
2022-11-26T02:35:39.516Z,100206.78
2022-11-26T02:38:10.850Z,100211.66
2022-11-26T02:40:40.508Z,100214.06
2022-11-26T02:43:10.418Z,100222.22
2022-11-26T02:45:43.634Z,100210.22
2022-11-26T02:48:17.079Z,100218.16
2022-11-26T02:50:48.456Z,100216.69
2022-11-26T02:53:19.192Z,100222.56
2022-11-26T02:55:49.598Z,100220.09
2022-11-26T02:58:19.547Z,100229.66
2022-11-26T03:00:51.211Z,100226.84
2022-11-26T03:03:26.060Z,100228.31
2022-11-26T03:05:57.089Z,100230.34
2022-11-26T03:08:27.450Z,100233.59
2022-11-26T03:10:56.968Z,100230.69
2022-11-26T03:13:27.154Z,100230.25
2022-11-26T03:15:58.782Z,100236.53
2022-11-26T03:18:28.380Z,100236.91
2022-11-26T03:20:58.051Z,100240.94
2022-11-26T03:23:27.569Z,100237.00
2022-11-26T03:25:57.248Z,100230.78
2022-11-26T03:28:26.787Z,100231.53
2022-11-26T03:30:56.488Z,100232.16
2022-11-26T03:33:27.400Z,100241.28
2022-11-26T03:35:57.079Z,100243.56
2022-11-26T03:38:26.791Z,100245.00
2022-11-26T03:40:57.241Z,100248.63
2022-11-26T03:43:26.795Z,100249.28
2022-11-26T03:45:56.583Z,100257.56
2022-11-26T03:48:27.599Z,100254.94
2022-11-26T03:50:57.125Z,100257.03
2022-11-26T03:53:26.722Z,100265.06
2022-11-26T03:55:56.468Z,100263.88
2022-11-26T03:58:25.947Z,100266.78
2022-11-26T04:00:55.605Z,100259.00
2022-11-26T04:03:25.246Z,100266.78
2022-11-26T04:05:56.189Z,100265.91
2022-11-26T04:08:25.726Z,100284.84
2022-11-26T04:10:55.316Z,100275.50
2022-11-26T04:13:26.948Z,100281.72
2022-11-26T04:15:57.004Z,100284.16
2022-11-26T04:18:26.501Z,100282.28
2022-11-26T04:20:57.464Z,100287.72
2022-11-26T04:23:27.050Z,100287.47
2022-11-26T04:25:56.620Z,100293.16
2022-11-26T04:28:26.523Z,100293.09
2022-11-26T04:30:56.069Z,100287.19
2022-11-26T04:33:26.999Z,100300.06
2022-11-26T04:35:57.972Z,100300.25
2022-11-26T04:38:27.576Z,100305.34
2022-11-26T04:40:57.094Z,100298.72
2022-11-26T04:43:26.607Z,100302.13
2022-11-26T04:45:56.255Z,100303.28
2022-11-26T04:48:25.751Z,100314.66
2022-11-26T04:50:55.269Z,100310.59
2022-11-26T04:53:26.194Z,100310.97
2022-11-26T04:55:55.853Z,100321.13
2022-11-26T04:58:25.282Z,100315.34
2022-11-26T05:00:54.967Z,100321.50
2022-11-26T05:03:24.532Z,100323.22
2022-11-26T05:05:54.253Z,100320.75
2022-11-26T05:08:23.805Z,100323.13
2022-11-26T05:10:55.652Z,100321.34
2022-11-26T05:13:25.584Z,100330.06
2022-11-26T05:15:55.736Z,100330.91
2022-11-26T05:18:25.287Z,100332.38
2022-11-26T05:20:54.776Z,100333.47
2022-11-26T05:23:24.193Z,100333.38
2022-11-26T05:25:55.125Z,100336.81
2022-11-26T05:28:24.653Z,100336.78
2022-11-26T05:30:58.906Z,100340.75
2022-11-26T05:33:28.720Z,100348.56
2022-11-26T05:35:58.319Z,100349.44
2022-11-26T05:38:27.981Z,100351.16
2022-11-26T05:40:58.837Z,100361.59
2022-11-26T05:43:28.759Z,100360.16
2022-11-26T05:45:58.341Z,100367.56
2022-11-26T05:48:28.125Z,100376.13
2022-11-26T05:50:58.019Z,100386.16
2022-11-26T05:53:28.146Z,100382.84
2022-11-26T05:55:59.019Z,100384.97
2022-11-26T05:58:29.029Z,100385.59
2022-11-26T06:00:58.612Z,100387.09
2022-11-26T06:03:28.458Z,100383.31
2022-11-26T06:05:58.144Z,100390.38
2022-11-26T06:08:27.597Z,100386.81
2022-11-26T06:10:57.133Z,100392.56
2022-11-26T06:13:28.149Z,100390.50
2022-11-26T06:15:57.846Z,100390.97
2022-11-26T06:18:27.358Z,100395.09
2022-11-26T06:21:00.476Z,100402.19
2022-11-26T06:23:30.232Z,100410.03
2022-11-26T06:25:59.932Z,100409.03
2022-11-26T06:28:30.993Z,100414.72
2022-11-26T06:31:00.779Z,100413.56
2022-11-26T06:33:30.582Z,100416.97
2022-11-26T06:36:01.155Z,100421.44
2022-11-26T06:38:30.724Z,100417.28
2022-11-26T06:41:01.132Z,100424.25
2022-11-26T06:43:32.318Z,100426.09
2022-11-26T06:46:02.600Z,100432.63
2022-11-26T06:48:32.127Z,100432.94
2022-11-26T06:51:04.581Z,100439.16
2022-11-26T06:53:34.458Z,100437.16
2022-11-26T07:56:10.844Z,100455.41
2022-11-26T07:58:41.895Z,100444.19
2022-11-26T08:01:15.330Z,100427.78
2022-11-26T08:03:48.271Z,100443.47
2022-11-26T08:06:19.907Z,100422.91
2022-11-26T08:08:49.837Z,100440.72
2022-11-26T08:11:23.231Z,100430.69
2022-11-26T08:13:55.486Z,100428.00
2022-11-26T08:16:28.580Z,100425.06
2022-11-26T08:19:00.853Z,100426.19
2022-11-26T08:21:30.635Z,100427.94
2022-11-26T08:24:00.401Z,100432.28
2022-11-26T08:26:36.152Z,100439.13
2022-11-26T08:29:07.505Z,100421.34
2022-11-26T08:31:45.293Z,100431.47
2022-11-26T08:34:17.663Z,100431.88
2022-11-26T08:36:47.600Z,100427.69
2022-11-26T08:39:19.556Z,100436.16
2022-11-26T08:41:52.662Z,100433.97
2022-11-26T08:44:23.110Z,100395.56
2022-11-26T08:46:52.847Z,100433.28
2022-11-26T08:49:22.656Z,100432.53
2022-11-26T08:51:52.503Z,100437.38
2022-11-26T08:54:22.244Z,100421.41
2022-11-26T08:56:53.822Z,100447.16
2022-11-26T08:59:24.394Z,100452.91
2022-11-26T09:01:54.235Z,100454.63
2022-11-26T09:04:24.103Z,100444.59
2022-11-26T09:06:53.878Z,100450.44
2022-11-26T09:09:23.641Z,100455.78
2022-11-26T09:11:59.496Z,100452.91
2022-11-26T09:14:31.701Z,100460.16
2022-11-26T09:17:01.865Z,100447.59
2022-11-26T09:19:32.085Z,100459.63
2022-11-26T09:22:02.633Z,100456.66
2022-11-26T09:24:32.600Z,100451.03
2022-11-26T09:27:07.821Z,100454.56
2022-11-26T09:29:38.193Z,100457.56
2022-11-26T09:32:24.513Z,100454.91
2022-11-26T09:34:55.828Z,100415.88
2022-11-26T09:37:25.634Z,100441.25
2022-11-26T09:39:55.621Z,100447.09
2022-11-26T09:42:39.747Z,100402.91
2022-11-26T09:45:19.026Z,100443.97
2022-11-26T09:47:53.504Z,100436.31
2022-11-26T09:50:31.795Z,100427.25
2022-11-26T09:53:06.089Z,100407.00
2022-11-26T09:55:38.892Z,100435.88
2022-11-26T09:58:25.316Z,100422.34
2022-11-26T10:00:59.382Z,100421.19
2022-11-26T10:03:34.561Z,100425.34
2022-11-26T10:06:08.618Z,100413.53
2022-11-26T10:09:04.208Z,100404.13
2022-11-26T10:11:41.172Z,100414.69
2022-11-26T10:14:28.670Z,100415.53
2022-11-26T10:17:12.374Z,100414.69
2022-11-26T10:19:54.542Z,100411.91
2022-11-26T10:22:29.894Z,100410.41
2022-11-26T10:25:03.163Z,100401.69
2022-11-26T10:27:36.054Z,100397.41
2022-11-26T10:30:18.380Z,100407.38
2022-11-26T10:32:50.539Z,100400.88
2022-11-26T10:35:22.841Z,100401.63
2022-11-26T10:37:53.329Z,100392.03
2022-11-26T10:40:25.812Z,100400.50
2022-11-26T10:43:05.297Z,100404.13
2022-11-26T10:45:41.566Z,100401.78
2022-11-26T10:48:26.613Z,100394.50
2022-11-26T10:51:06.262Z,100357.66
2022-11-26T10:53:51.873Z,100391.41
2022-11-26T10:56:25.042Z,100383.63
2022-11-26T10:59:05.078Z,100356.03
2022-11-26T11:01:39.624Z,100391.34
2022-11-26T11:04:24.974Z,100384.19
2022-11-26T11:06:55.088Z,100351.44
2022-11-26T11:09:31.865Z,100380.75
2022-11-26T11:12:20.796Z,100348.91
2022-11-26T11:14:52.436Z,100383.91
2022-11-26T11:17:32.126Z,100378.56
2022-11-26T11:20:22.124Z,100367.66
2022-11-26T11:22:58.990Z,100378.84
2022-11-26T11:25:31.704Z,100364.97
2022-11-26T11:28:11.975Z,100375.06
2022-11-26T11:30:43.369Z,100364.28
2022-11-26T11:33:21.612Z,100376.47
2022-11-26T11:36:03.480Z,100367.28
2022-11-26T11:38:35.224Z,100367.28
2022-11-26T11:41:14.942Z,100363.63
2022-11-26T11:43:45.067Z,100358.88
2022-11-26T11:46:42.834Z,100356.72
2022-11-26T11:49:24.489Z,100357.38
2022-11-26T11:52:08.162Z,100324.19
2022-11-26T11:54:54.531Z,100363.03
2022-11-26T11:57:40.486Z,100362.06
2022-11-26T12:00:16.236Z,100358.88
2022-11-26T12:03:17.001Z,100353.03
2022-11-26T12:06:20.332Z,100347.72
2022-11-26T12:09:03.803Z,100320.56
2022-11-26T12:11:42.506Z,100343.38
2022-11-26T12:14:17.580Z,100348.72
2022-11-26T12:16:54.322Z,100328.34
2022-11-26T12:19:35.664Z,100346.78
2022-11-26T12:22:16.441Z,100342.41
2022-11-26T12:24:50.318Z,100342.63
2022-11-26T12:27:29.003Z,100343.94
2022-11-26T12:30:04.992Z,100336.06
2022-11-26T12:32:40.768Z,100336.69
2022-11-26T12:35:16.055Z,100343.72
2022-11-26T12:37:51.723Z,100342.03
2022-11-26T12:40:32.936Z,100330.44
2022-11-26T12:43:11.521Z,100338.22
2022-11-26T12:45:52.653Z,100338.94
2022-11-26T12:48:35.832Z,100347.72
2022-11-26T12:51:18.325Z,100346.84
2022-11-26T12:53:58.702Z,100342.50
2022-11-26T12:56:34.001Z,100346.84
2022-11-26T12:59:10.867Z,100353.88
2022-11-26T13:01:42.066Z,100345.88
2022-11-26T13:04:36.580Z,100351.44
2022-11-26T13:07:21.496Z,100349.97
2022-11-26T13:10:04.025Z,100318.59
2022-11-26T13:12:46.767Z,100359.78
2022-11-26T13:15:25.994Z,100368.75
2022-11-26T13:17:58.420Z,100363.41
2022-11-26T13:20:49.133Z,100359.91
2022-11-26T13:23:38.229Z,100354.44
2022-11-26T13:26:23.674Z,100356.25
2022-11-26T13:29:29.032Z,100361.59
2022-11-26T13:32:14.806Z,100311.47
2022-11-26T13:35:01.864Z,100353.44
2022-11-26T13:37:47.931Z,100357.03
2022-11-26T13:40:53.503Z,100355.34
2022-11-26T13:43:58.617Z,100360.06
2022-11-26T13:46:32.058Z,100354.59
2022-11-26T13:49:07.818Z,100365.38
2022-11-26T13:51:43.402Z,100360.28
2022-11-26T13:54:18.530Z,100345.38
2022-11-26T13:56:49.347Z,100361.13
2022-11-26T13:59:27.974Z,100349.19
2022-11-26T14:01:58.478Z,100362.41
2022-11-26T14:04:56.095Z,100368.19
2022-11-26T14:07:27.266Z,100365.00
2022-11-26T14:10:00.130Z,100369.25
2022-11-26T14:13:04.150Z,100374.69
2022-11-26T14:15:57.387Z,100378.66
2022-11-26T14:19:00.612Z,100381.53
2022-11-26T14:21:31.610Z,100385.72
2022-11-26T14:24:01.906Z,100382.72
2022-11-26T14:26:37.389Z,100394.25
2022-11-26T14:29:17.540Z,100376.88
2022-11-26T14:31:55.210Z,100399.66
2022-11-26T14:34:32.735Z,100366.84
2022-11-26T14:37:03.409Z,100399.47
2022-11-26T14:39:33.213Z,100401.59
2022-11-26T14:42:06.360Z,100385.72
2022-11-26T14:44:36.668Z,100408.28
2022-11-26T14:47:17.509Z,100408.28
2022-11-26T14:49:51.079Z,100415.75
2022-11-26T14:52:25.016Z,100399.13
2022-11-26T14:54:57.396Z,100420.84
2022-11-26T14:57:32.353Z,100420.19
2022-11-26T15:00:09.017Z,100425.00
2022-11-26T15:02:42.522Z,100417.22
2022-11-26T15:05:16.451Z,100419.34
2022-11-26T15:07:47.023Z,100421.38
2022-11-26T15:10:22.102Z,100423.34
2022-11-26T15:12:53.861Z,100423.03
2022-11-26T15:15:25.569Z,100438.13
2022-11-26T15:18:00.087Z,100441.94
2022-11-26T15:20:30.534Z,100438.00
2022-11-26T15:23:03.719Z,100448.94
2022-11-26T15:25:37.153Z,100434.22
2022-11-26T15:28:17.409Z,100447.63
2022-11-26T15:30:56.980Z,100432.66
2022-11-26T15:33:29.727Z,100424.97
2022-11-26T15:36:00.364Z,100452.22
2022-11-26T15:38:32.441Z,100452.25
2022-11-26T15:41:07.927Z,100454.44
2022-11-26T15:43:44.093Z,100462.03
2022-11-26T15:46:19.150Z,100456.63
2022-11-26T15:48:54.487Z,100461.06
2022-11-26T15:51:34.971Z,100458.38
2022-11-26T15:54:21.660Z,100472.41
2022-11-26T15:56:55.089Z,100462.91
2022-11-26T15:59:27.149Z,100467.69
2022-11-26T16:01:57.137Z,100468.03
2022-11-26T16:04:45.873Z,100474.31
2022-11-26T16:07:17.891Z,100474.31
2022-11-26T16:09:49.408Z,100479.75
2022-11-26T16:12:29.215Z,100481.53
2022-11-26T16:15:19.752Z,100482.28
2022-11-26T16:17:51.106Z,100479.06
2022-11-26T16:20:25.510Z,100466.06
2022-11-26T16:22:59.141Z,100476.50
2022-11-26T16:25:31.666Z,100455.19
2022-11-26T16:28:06.620Z,100493.47
2022-11-26T16:30:36.869Z,100499.66
2022-11-26T16:33:07.253Z,100487.69
2022-11-26T16:35:46.895Z,100500.84
2022-11-26T16:38:20.889Z,100485.53
2022-11-26T16:40:51.151Z,100511.94
2022-11-26T16:43:21.805Z,100513.47
2022-11-26T16:45:55.414Z,100503.03
2022-11-26T16:48:26.796Z,100499.47
2022-11-26T16:50:58.434Z,100513.88
2022-11-26T16:53:28.294Z,100520.63
2022-11-26T16:55:58.838Z,100525.25
2022-11-26T16:58:30.572Z,100519.09
2022-11-26T17:01:00.822Z,100523.47
2022-11-26T17:03:33.163Z,100515.06
2022-11-26T17:06:12.368Z,100523.19
2022-11-26T17:08:47.924Z,100527.16
2022-11-26T17:11:19.621Z,100510.81
2022-11-26T17:13:49.864Z,100523.66
2022-11-26T17:16:21.993Z,100527.25
2022-11-26T17:18:51.994Z,100523.91
2022-11-26T17:21:23.211Z,100538.78
2022-11-26T17:23:53.083Z,100539.94
2022-11-26T17:26:25.043Z,100543.19
2022-11-26T17:28:55.023Z,100547.91
2022-11-26T17:31:24.897Z,100525.13
2022-11-26T17:33:54.729Z,100542.91
2022-11-26T17:36:25.951Z,100537.97
2022-11-26T17:38:55.886Z,100549.59
2022-11-26T17:41:25.804Z,100547.47
2022-11-26T17:43:55.731Z,100557.22
2022-11-26T17:46:25.897Z,100558.44
2022-11-26T17:48:59.779Z,100556.06
2022-11-26T17:51:31.287Z,100568.00
2022-11-26T17:54:01.155Z,100573.09
2022-11-26T17:56:31.316Z,100572.03
2022-11-26T17:59:02.641Z,100573.78
2022-11-26T18:01:32.448Z,100580.53
2022-11-26T18:04:02.393Z,100572.56
2022-11-26T18:06:47.418Z,100580.69
2022-11-26T18:09:17.508Z,100581.94
2022-11-26T18:11:50.364Z,100575.22
2022-11-26T18:14:20.941Z,100582.25
2022-11-26T18:16:51.280Z,100587.69
2022-11-26T18:19:23.049Z,100548.28
2022-11-26T18:21:54.177Z,100580.53
2022-11-26T18:24:24.176Z,100596.09
2022-11-26T18:26:56.400Z,100601.63
2022-11-26T18:29:27.645Z,100603.28
2022-11-26T18:31:57.670Z,100602.72
2022-11-26T18:34:27.472Z,100611.66
2022-11-26T18:36:58.658Z,100617.09
2022-11-26T18:39:28.445Z,100610.81
2022-11-26T18:42:29.498Z,100620.47
2022-11-26T18:44:48.304Z,100613.47
2022-11-26T18:47:18.097Z,100615.56
2022-11-26T18:49:48.235Z,100616.09
2022-11-26T18:52:19.531Z,100629.59
2022-11-26T18:54:49.455Z,100640.19
2022-11-26T18:57:19.332Z,100639.94
2022-11-26T18:59:50.619Z,100632.25
2022-11-26T19:02:20.533Z,100634.19
2022-11-26T19:04:50.700Z,100631.31
2022-11-26T19:07:21.854Z,100647.41
2022-11-26T19:09:52.243Z,100635.22
2022-11-26T19:12:22.970Z,100639.13
2022-11-26T19:14:53.237Z,100628.28
2022-11-26T19:17:23.829Z,100644.41
2022-11-26T19:19:53.723Z,100648.38
2022-11-26T19:22:25.129Z,100644.25
2022-11-26T19:24:54.948Z,100645.81
2022-11-26T19:27:24.854Z,100650.47
2022-11-26T19:29:54.674Z,100657.41
2022-11-26T19:32:25.092Z,100659.50
2022-11-26T19:34:55.454Z,100658.81
2022-11-26T19:37:26.720Z,100657.50
2022-11-26T19:39:56.872Z,100656.84
2022-11-26T19:42:26.689Z,100653.59
2022-11-26T19:44:56.930Z,100633.25
2022-11-26T19:47:27.038Z,100659.75
2022-11-26T19:49:57.048Z,100660.06
2022-11-26T19:52:28.279Z,100648.47
2022-11-26T19:54:58.436Z,100657.81
2022-11-26T19:57:28.258Z,100661.84
2022-11-26T19:59:58.263Z,100665.59
2022-11-26T20:02:28.201Z,100665.44
2022-11-26T20:04:58.152Z,100665.19
2022-11-26T20:07:29.480Z,100671.13
2022-11-26T20:09:59.499Z,100666.50
2022-11-26T20:12:29.918Z,100668.16
2022-11-26T20:15:00.981Z,100672.88
2022-11-26T20:17:31.340Z,100672.44
2022-11-26T20:20:01.124Z,100679.44
2022-11-26T20:22:34.396Z,100671.97
2022-11-26T20:25:04.886Z,100670.63
2022-11-26T20:27:34.681Z,100682.38
2022-11-26T20:30:04.905Z,100679.78
2022-11-26T20:32:34.745Z,100681.31
2022-11-26T20:35:04.917Z,100687.16
2022-11-26T20:37:36.150Z,100687.53
2022-11-26T20:40:07.441Z,100684.38
2022-11-26T20:42:38.487Z,100689.84
2022-11-26T20:45:08.667Z,100693.75
2022-11-26T20:47:38.569Z,100694.28
2022-11-26T20:50:10.795Z,100695.16
2022-11-26T20:52:42.136Z,100693.59
2022-11-26T20:55:12.109Z,100695.28
2022-11-26T20:57:41.930Z,100688.34
2022-11-26T21:00:16.913Z,100683.19
2022-11-26T21:02:47.540Z,100690.44
2022-11-26T21:05:18.354Z,100682.19
2022-11-26T21:07:51.312Z,100699.09
2022-11-26T21:10:25.144Z,100704.69
2022-11-26T21:12:56.354Z,100699.41
2022-11-26T21:15:26.674Z,100695.34
2022-11-26T21:17:56.753Z,100691.88
2022-11-26T21:20:27.512Z,100708.16
2022-11-26T21:23:00.640Z,100703.31
2022-11-26T21:25:30.528Z,100704.63
2022-11-26T21:28:00.337Z,100662.94
2022-11-26T21:30:30.252Z,100661.22
2022-11-26T21:33:03.211Z,100705.41
2022-11-26T21:35:36.144Z,100701.03
2022-11-26T21:38:07.876Z,100692.25
2022-11-26T21:40:37.912Z,100677.13
2022-11-26T21:43:07.960Z,100693.94
2022-11-26T22:26:57.705Z,100710.72
2022-11-26T22:29:28.094Z,100714.19
2022-11-26T22:31:57.799Z,100711.38
2022-11-26T22:34:29.162Z,100713.81
2022-11-26T22:36:59.020Z,100718.53
2022-11-26T22:39:30.588Z,100714.28
2022-11-26T22:42:01.873Z,100707.63
2022-11-26T22:44:32.247Z,100707.88
2022-11-26T22:47:02.035Z,100702.63
2022-11-26T22:49:31.901Z,100665.91
2022-11-26T22:52:01.716Z,100699.72
2022-11-26T22:54:31.470Z,100708.34
2022-11-26T22:57:02.617Z,100707.22
2022-11-26T22:59:32.557Z,100704.47
2022-11-26T23:02:02.231Z,100705.38
2022-11-26T23:04:32.056Z,100707.53
2022-11-26T23:07:01.892Z,100704.66
2022-11-26T23:09:31.854Z,100696.34
2022-11-26T23:12:03.856Z,100702.22
2022-11-26T23:14:34.103Z,100699.50
2022-11-26T23:17:04.446Z,100709.16
2022-11-26T23:19:34.504Z,100708.88
2022-11-26T23:22:04.745Z,100709.09
2022-11-26T23:24:34.553Z,100705.00
2022-11-26T23:27:05.686Z,100712.97
2022-11-26T23:29:35.971Z,100709.81
2022-11-26T23:32:05.800Z,100704.28
2022-11-26T23:34:35.569Z,100708.81
2022-11-26T23:37:05.293Z,100704.25
2022-11-26T23:39:35.041Z,100704.50
2022-11-26T23:42:06.544Z,100710.19
2022-11-26T23:44:36.298Z,100710.56
2022-11-26T23:47:06.165Z,100695.53
2022-11-26T23:49:35.995Z,100703.94
2022-11-26T23:52:06.175Z,100705.81
2022-11-26T23:54:36.119Z,100700.44
2022-11-26T23:57:11.828Z,100706.19
2022-11-26T23:59:44.625Z,100708.69
